Time;durP1;ratioP1;P1;durP2;ratioP2;P2;SDS_P1;SDS_P2;PMS_P1;PMS_P2;Temp;Humidity;BMP_temperature;BMP_pressure;BME280_temperature;BME280_humidity;BME280_pressure;Samples;Min_cycle;Max_cycle;Signal;HPM_P1;HPM_P2
2023/07/25 00:00:12;;;;;;;;;;;;;;;;;;6233590;28;19910;-73
2023/07/25 00:03:12;;;;;;;;;;;;;;;;;;6243745;28;19963;-73
2023/07/25 00:06:13;;;;;;;;;;;;;;;;;;6232524;28;20157;-79
2023/07/25 00:09:13;;;;;;;;;;;;;;;;;;6222417;28;19906;-79
2023/07/25 00:12:13;;;;;;;;;;;;;;;;;;6244406;28;19920;-79
2023/07/25 00:15:13;;;;;;;;;;;;;;;;;;6227601;28;20005;-79
2023/07/25 00:18:13;;;;;;;;;;;;;;;;;;6224727;28;20275;-79
2023/07/25 00:21:13;;;;;;;;;;;;;;;;;;6238436;28;19951;-79
2023/07/25 00:24:15;;;;;;;;;;;;;;;;;;6244149;28;19956;-79
2023/07/25 00:27:15;;;;;;;;;;;;;;;;;;6221058;28;19917;-78
2023/07/25 00:30:15;;;;;;;;;;;;;;;;;;6241218;28;20409;-78
2023/07/25 00:33:15;;;;;;;;;;;;;;;;;;6241266;28;19905;-79
2023/07/25 00:36:15;;;;;;;;;;;;;;;;;;6243434;28;19912;-79
2023/07/25 00:39:16;;;;;;;;;;;;;;;;;;6242195;28;20417;-79
2023/07/25 00:42:16;;;;;;;;;;;;;;;;;;6239130;28;19913;-80
2023/07/25 00:45:16;;;;;;;;;;;;;;;;;;6249227;28;19913;-80
2023/07/25 00:48:16;;;;;;;;;;;;;;;;;;6242840;28;19917;-80
2023/07/25 00:51:17;;;;;;;;;;;;;;;;;;6242629;28;19912;-80
2023/07/25 00:54:17;;;;;;;;;;;;;;;;;;6233186;28;19988;-80
2023/07/25 00:57:17;;;;;;;;;;;;;;;;;;6234111;28;19909;-80
2023/07/25 01:00:18;;;;;;;;;;;;;;;;;;6227197;28;19915;-80
2023/07/25 01:03:18;;;;;;;;;;;;;;;;;;6238308;28;19909;-78
2023/07/25 01:06:18;;;;;;;;;;;;;;;;;;6237351;28;19912;-80
2023/07/25 01:09:18;;;;;;;;;;;;;;;;;;6241280;28;19913;-79
2023/07/25 01:12:18;;;;;;;;;;;;;;;;;;6230862;28;19916;-80
2023/07/25 01:15:18;;;;;;;;;;;;;;;;;;6237530;28;19921;-74
2023/07/25 01:18:18;;;;;;;;;;;;;;;;;;6233268;28;19960;-74
2023/07/25 01:21:18;;;;;;;;;;;;;;;;;;6214625;28;19916;-74
2023/07/25 01:24:18;;;;;;;;;;;;;;;;;;6236957;28;19916;-74
2023/07/25 01:27:19;;;;;;;;;;;;;;;;;;6241657;28;19912;-73
2023/07/25 01:30:19;;;;;;;;;;;;;;;;;;6234100;28;20026;-73
2023/07/25 01:33:19;;;;;;;;;;;;;;;;;;6230390;28;19913;-73
2023/07/25 01:36:19;;;;;;;;;;;;;;;;;;6237413;28;19939;-73
2023/07/25 01:39:19;;;;;;;;;;;;;;;;;;6238814;28;19967;-73
2023/07/25 01:42:19;;;;;;;;;;;;;;;;;;6238369;28;20280;-74
2023/07/25 01:45:19;;;;;;;;;;;;;;;;;;6235347;28;19917;-73
2023/07/25 01:48:19;;;;;;;;;;;;;;;;;;6235383;28;19941;-73
2023/07/25 01:51:20;;;;;;;;;;;;;;;;;;6238474;28;19920;-73
2023/07/25 01:54:20;;;;;;;;;;;;;;;;;;6241333;28;19920;-78
2023/07/25 01:57:20;;;;;;;;;;;;;;;;;;6226058;28;20425;-79
2023/07/25 02:00:20;;;;;;;;;;;;;;;;;;6233965;28;19913;-77
2023/07/25 02:03:20;;;;;;;;;;;;;;;;;;6236485;28;20298;-79
2023/07/25 02:06:20;;;;;;;;;;;;;;;;;;6242045;28;20519;-80
2023/07/25 02:09:20;;;;;;;;;;;;;;;;;;6242021;28;19920;-78
2023/07/25 02:12:20;;;;;;;;;;;;;;;;;;6241984;28;19936;-78
2023/07/25 02:15:20;;;;;;;;;;;;;;;;;;6237659;28;19964;-80
2023/07/25 02:18:20;;;;;;;;;;;;;;;;;;6231981;28;20367;-79
2023/07/25 02:21:21;;;;;;;;;;;;;;;;;;6241293;28;19909;-78
2023/07/25 02:24:21;;;;;;;;;;;;;;;;;;6244898;28;19913;-79
2023/07/25 02:27:21;;;;;;;;;;;;;;;;;;6239233;28;19917;-79
2023/07/25 02:30:21;;;;;;;;;;;;;;;;;;6237396;28;20355;-78
2023/07/25 02:33:21;;;;;;;;;;;;;;;;;;6228976;28;19909;-78
2023/07/25 02:36:21;;;;;;;;;;;;;;;;;;6245717;28;20008;-79
2023/07/25 02:39:21;;;;;;;;;;;;;;;;;;6239236;28;20454;-79
2023/07/25 02:42:21;;;;;;;;;;;;;;;;;;6244590;28;20367;-79
2023/07/25 02:45:21;;;;;;;;;;;;;;;;;;6239286;28;19913;-80
2023/07/25 02:48:21;;;;;;;;;;;;;;;;;;6234707;28;20008;-80
2023/07/25 02:51:22;;;;;;;;;;;;;;;;;;6238165;28;19930;-79
2023/07/25 02:54:22;;;;;;;;;;;;;;;;;;6246042;28;19979;-80
2023/07/25 02:57:22;;;;;;;;;;;;;;;;;;6221672;28;20000;-79
2023/07/25 03:00:22;;;;;;;;;;;;;;;;;;6243659;28;19928;-79
2023/07/25 03:03:22;;;;;;;;;;;;;;;;;;6250837;28;20363;-80
2023/07/25 03:06:22;;;;;;;;;;;;;;;;;;6236223;28;19991;-79
2023/07/25 03:09:22;;;;;;;;;;;;;;;;;;6236540;28;19952;-80
2023/07/25 03:12:24;;;;;;;;;;;;;;;;;;6230774;28;19915;-81
2023/07/25 03:15:24;;;;;;;;;;;;;;;;;;6241347;28;19917;-80
2023/07/25 03:18:24;;;;;;;;;;;;;;;;;;6233366;28;19909;-81
2023/07/25 03:21:24;;;;;;;;;;;;;;;;;;6232742;28;19927;-80
2023/07/25 03:24:25;;;;;;;;;;;;;;;;;;6249384;28;19904;-81
2023/07/25 03:27:25;;;;;;;;;;;;;;;;;;6240752;28;19909;-81
2023/07/25 03:30:25;;;;;;;;;;;;;;;;;;6232685;28;19912;-80
2023/07/25 03:33:27;;;;;;;;;;;;;;;;;;6227711;28;19979;-81
2023/07/25 03:36:27;;;;;;;;;;;;;;;;;;6232373;28;19909;-79
2023/07/25 03:39:27;;;;;;;;;;;;;;;;;;6245576;28;19954;-78
2023/07/25 03:42:27;;;;;;;;;;;;;;;;;;6244118;28;19913;-80
2023/07/25 03:45:27;;;;;;;;;;;;;;;;;;6241674;28;20386;-81
2023/07/25 03:48:28;;;;;;;;;;;;;;;;;;6238428;28;19913;-80
2023/07/25 03:51:28;;;;;;;;;;;;;;;;;;6239952;28;19909;-80
2023/07/25 03:54:28;;;;;;;;;;;;;;;;;;6238840;28;19909;-81
2023/07/25 03:57:28;;;;;;;;;;;;;;;;;;6243801;28;19915;-80
2023/07/25 04:00:28;;;;;;;;;;;;;;;;;;6234342;28;19959;-81
2023/07/25 04:03:28;;;;;;;;;;;;;;;;;;6237851;28;19913;-81
2023/07/25 04:06:28;;;;;;;;;;;;;;;;;;6236353;28;19967;-80
2023/07/25 04:09:29;;;;;;;;;;;;;;;;;;6242023;28;19909;-79
2023/07/25 04:12:29;;;;;;;;;;;;;;;;;;6241063;28;19916;-80
2023/07/25 04:15:29;;;;;;;;;;;;;;;;;;6242026;28;20027;-81
2023/07/25 04:18:29;;;;;;;;;;;;;;;;;;6246976;28;19909;-80
2023/07/25 04:21:29;;;;;;;;;;;;;;;;;;6230215;28;19910;-80
2023/07/25 04:24:29;;;;;;;;;;;;;;;;;;6238078;28;19920;-80
2023/07/25 04:27:32;;;;;;;;;;;;;;;;;;6231640;28;20497;-80
2023/07/25 04:30:32;;;;;;;;;;;;;;;;;;6242638;28;20023;-81
2023/07/25 04:33:32;;;;;;;;;;;;;;;;;;6234121;28;19906;-81
2023/07/25 04:36:32;;;;;;;;;;;;;;;;;;6236735;28;19916;-74
2023/07/25 04:39:32;;;;;;;;;;;;;;;;;;6225193;28;19912;-73
2023/07/25 04:42:32;;;;;;;;;;;;;;;;;;6238664;28;19958;-74
2023/07/25 04:45:33;;;;;;;;;;;;;;;;;;6236900;28;20349;-74
2023/07/25 04:48:33;;;;;;;;;;;;;;;;;;6242819;28;19909;-73
2023/07/25 04:51:33;;;;;;;;;;;;;;;;;;6236587;28;19909;-73
2023/07/25 04:54:33;;;;;;;;;;;;;;;;;;6242909;28;20417;-80
2023/07/25 04:57:33;;;;;;;;;;;;;;;;;;6242756;28;19909;-79
2023/07/25 05:00:33;;;;;;;;;;;;;;;;;;6242172;28;19909;-80
2023/07/25 05:03:34;;;;;;;;;;;;;;;;;;6234695;28;19997;-80
2023/07/25 05:06:34;;;;;;;;;;;;;;;;;;6220651;28;19936;-78
2023/07/25 05:09:34;;;;;;;;;;;;;;;;;;6244740;28;19916;-81
2023/07/25 05:12:34;;;;;;;;;;;;;;;;;;6244935;28;20012;-80
2023/07/25 05:15:34;;;;;;;;;;;;;;;;;;6241918;28;19936;-82
2023/07/25 05:18:34;;;;;;;;;;;;;;;;;;6223192;28;19982;-81
2023/07/25 05:21:34;;;;;;;;;;;;;;;;;;6233356;28;19905;-81
2023/07/25 05:24:34;;;;;;;;;;;;;;;;;;6230462;28;19905;-81
2023/07/25 05:27:35;;;;;;;;;;;;;;;;;;6236713;28;20107;-83
2023/07/25 05:30:36;;;;;;;;;;;;;;;;;;6228791;28;19905;-82
2023/07/25 05:33:36;;;;;;;;;;;;;;;;;;6237247;28;19987;-83
2023/07/25 05:36:36;;;;;;;;;;;;;;;;;;6235875;28;19923;-83
2023/07/25 05:39:36;;;;;;;;;;;;;;;;;;6243197;28;20680;-82
2023/07/25 05:42:36;;;;;;;;;;;;;;;;;;6243039;28;19913;-82
2023/07/25 05:45:36;;;;;;;;;;;;;;;;;;6241812;28;20466;-81
2023/07/25 05:48:36;;;;;;;;;;;;;;;;;;6236347;28;19913;-81
2023/07/25 05:51:36;;;;;;;;;;;;;;;;;;6240998;28;19913;-82
2023/07/25 05:54:37;;;;;;;;;;;;;;;;;;6241822;28;20347;-83
2023/07/25 05:57:37;;;;;;;;;;;;;;;;;;6238842;28;19952;-83
2023/07/25 06:00:37;;;;;;;;;;;;;;;;;;6231741;28;19909;-82
2023/07/25 06:03:37;;;;;;;;;;;;;;;;;;6238348;28;19949;-82
2023/07/25 06:06:37;;;;;;;;;;;;;;;;;;6238512;28;19913;-85
2023/07/25 06:09:37;;;;;;;;;;;;;;;;;;6238400;28;19909;-83
2023/07/25 06:12:37;;;;;;;;;;;;;;;;;;6234303;28;19913;-85
2023/07/25 06:15:37;;;;;;;;;;;;;;;;;;6248111;28;19917;-85
2023/07/25 06:18:37;;;;;;;;;;;;;;;;;;6227586;28;19913;-84
2023/07/25 06:21:37;;;;;;;;;;;;;;;;;;6247427;28;19928;-79
2023/07/25 06:24:38;;;;;;;;;;;;;;;;;;6279397;28;19908;-77
2023/07/25 06:27:38;;;;;;;;;;;;;;;;;;6267502;28;19908;-77
2023/07/25 06:30:38;;;;;;;;;;;;;;;;;;6262395;28;19917;-81
2023/07/25 06:33:38;;;;;;;;;;;;;;;;;;6239320;28;19909;-83
2023/07/25 06:36:38;;;;;;;;;;;;;;;;;;6239557;28;19956;-82
2023/07/25 06:39:38;;;;;;;;;;;;;;;;;;6240803;28;20380;-83
2023/07/25 06:42:38;;;;;;;;;;;;;;;;;;6245726;28;19924;-82
2023/07/25 06:45:39;;;;;;;;;;;;;;;;;;6242527;28;19940;-81
2023/07/25 06:48:39;;;;;;;;;;;;;;;;;;6242313;28;20772;-82
2023/07/25 06:51:39;;;;;;;;;;;;;;;;;;6242827;28;20386;-82
2023/07/25 06:54:39;;;;;;;;;;;;;;;;;;6243578;28;20019;-74
2023/07/25 06:57:39;;;;;;;;;;;;;;;;;;6245885;28;19924;-73
2023/07/25 07:00:39;;;;;;;;;;;;;;;;;;6243490;28;19987;-74
2023/07/25 07:03:39;;;;;;;;;;;;;;;;;;6236364;28;19967;-74
2023/07/25 07:06:39;;;;;;;;;;;;;;;;;;6241360;28;20405;-74
2023/07/25 07:09:39;;;;;;;;;;;;;;;;;;6239623;28;19909;-74
2023/07/25 07:12:45;;;;;;;;;;;;;;;;;;6226505;28;19920;-74
2023/07/25 07:15:45;;;;;;;;;;;;;;;;;;6233491;28;19920;-74
2023/07/25 07:18:46;;;;;;;;;;;;;;;;;;6230853;28;20240;-74
2023/07/25 07:21:46;;;;;;;;;;;;;;;;;;6244147;28;19909;-74
2023/07/25 07:24:46;;;;;;;;;;;;;;;;;;6238554;28;19999;-74
2023/07/25 07:27:46;;;;;;;;;;;;;;;;;;6239630;28;19928;-74
2023/07/25 07:30:46;;;;;;;;;;;;;;;;;;6245563;28;19928;-74
2023/07/25 07:33:46;;;;;;;;;;;;;;;;;;6237625;28;19909;-75
2023/07/25 07:36:47;;;;;;;;;;;;;;;;;;6236289;28;19925;-72
2023/07/25 07:39:47;;;;;;;;;;;;;;;;;;6228745;28;19941;-73
2023/07/25 07:42:47;;;;;;;;;;;;;;;;;;6237251;28;19909;-73
2023/07/25 07:45:47;;;;;;;;;;;;;;;;;;6230955;28;19909;-86
2023/07/25 07:48:47;;;;;;;;;;;;;;;;;;6237878;28;20008;-86
2023/07/25 07:51:47;;;;;;;;;;;;;;;;;;6226546;28;19909;-87
2023/07/25 07:54:47;;;;;;;;;;;;;;;;;;6242270;28;19967;-86
2023/07/25 07:57:47;;;;;;;;;;;;;;;;;;6236549;28;20039;-85
2023/07/25 08:00:47;;;;;;;;;;;;;;;;;;6245008;28;19905;-84
2023/07/25 08:03:47;;;;;;;;;;;;;;;;;;6233476;28;19928;-86
2023/07/25 08:06:48;;;;;;;;;;;;;;;;;;6240130;28;19909;-82
2023/07/25 08:09:48;;;;;;;;;;;;;;;;;;6240851;28;20314;-84
2023/07/25 08:12:48;;;;;;;;;;;;;;;;;;6241187;28;19953;-84
2023/07/25 08:15:48;;;;;;;;;;;;;;;;;;6233760;28;19917;-87
2023/07/25 08:18:48;;;;;;;;;;;;;;;;;;6228951;28;19911;-87
2023/07/25 08:21:49;;;;;;;;;;;;;;;;;;6255130;28;20733;-86
2023/07/25 08:24:49;;;;;;;;;;;;;;;;;;6242054;28;19909;-84
2023/07/25 08:27:49;;;;;;;;;;;;;;;;;;6242424;28;19913;-83
2023/07/25 08:30:49;;;;;;;;;;;;;;;;;;6237569;28;20447;-82
2023/07/25 08:33:49;;;;;;;;;;;;;;;;;;6243586;28;20019;-82
2023/07/25 08:36:49;;;;;;;;;;;;;;;;;;6245235;28;19917;-85
2023/07/25 08:39:49;;;;;;;;;;;;;;;;;;6250248;28;19913;-86
2023/07/25 08:42:49;;;;;;;;;;;;;;;;;;6243646;28;19909;-87
2023/07/25 08:45:49;;;;;;;;;;;;;;;;;;6254600;28;19920;-87
2023/07/25 08:48:50;;;;;;;;;;;;;;;;;;6226275;28;20761;-82
2023/07/25 08:51:51;;;;;;;;;;;;;;;;;;6247590;28;19916;-82
2023/07/25 08:54:51;;;;;;;;;;;;;;;;;;6241835;28;19955;-74
2023/07/25 08:57:51;;;;;;;;;;;;;;;;;;6241037;28;19958;-74
2023/07/25 09:00:51;;;;;;;;;;;;;;;;;;6235672;28;20635;-73
2023/07/25 09:03:51;;;;;;;;;;;;;;;;;;6249942;28;19919;-73
2023/07/25 09:06:51;;;;;;;;;;;;;;;;;;6239314;28;19924;-73
2023/07/25 09:09:52;;;;;;;;;;;;;;;;;;6222127;28;19905;-73
2023/07/25 09:12:52;;;;;;;;;;;;;;;;;;6240975;28;20035;-73
2023/07/25 09:15:52;;;;;;;;;;;;;;;;;;6238718;28;19917;-73
2023/07/25 09:18:52;;;;;;;;;;;;;;;;;;6240902;28;19913;-73
2023/07/25 09:21:58;;;;;;;;;;;;;;;;;;6231187;28;19905;-73
2023/07/25 09:24:58;;;;;;;;;;;;;;;;;;6224784;28;19940;-81
2023/07/25 09:27:59;;;;;;;;;;;;;;;;;;6232096;28;19931;-84
2023/07/25 09:30:59;;;;;;;;;;;;;;;;;;6237103;28;19905;-85
2023/07/25 09:34:00;;;;;;;;;;;;;;;;;;6239558;28;19905;-75
2023/07/25 09:37:00;;;;;;;;;;;;;;;;;;6242472;28;19905;-85
2023/07/25 09:40:00;;;;;;;;;;;;;;;;;;6267341;28;19945;-86
2023/07/25 09:43:01;;;;;;;;;;;;;;;;;;6264883;28;19961;-87
2023/07/25 09:46:01;;;;;;;;;;;;;;;;;;6252201;28;20009;-89
2023/07/25 09:49:02;;;;;;;;;;;;;;;;;;6246735;28;19913;-89
2023/07/25 09:52:04;;;;;;;;;;;;;;;;;;6246018;28;19905;-86
2023/07/25 09:55:04;;;;;;;;;;;;;;;;;;6249378;28;19959;-85
2023/07/25 09:58:04;;;;;;;;;;;;;;;;;;6246512;28;19913;-84
2023/07/25 10:01:04;;;;;;;;;;;;;;;;;;6264136;28;19917;-85
2023/07/25 10:04:04;;;;;;;;;;;;;;;;;;6264756;28;19980;-81
2023/07/25 10:07:09;;;;;;;;;;;;;;;;;;6266822;28;19917;-84
2023/07/25 10:10:09;;;;;;;;;;;;;;;;;;6257928;28;19924;-86
2023/07/25 10:13:09;;;;;;;;;;;;;;;;;;6252898;28;20386;-86
2023/07/25 10:16:10;;;;;;;;;;;;;;;;;;6247450;28;19939;-74
2023/07/25 10:19:10;;;;;;;;;;;;;;;;;;6241119;28;20410;-74
2023/07/25 10:22:10;;;;;;;;;;;;;;;;;;6227695;28;19913;-75
2023/07/25 10:25:11;;;;;;;;;;;;;;;;;;6243409;28;19953;-75
2023/07/25 10:28:11;;;;;;;;;;;;;;;;;;6243672;28;20377;-75
2023/07/25 10:31:11;;;;;;;;;;;;;;;;;;6243596;28;19986;-75
2023/07/25 10:34:11;;;;;;;;;;;;;;;;;;6233299;28;20375;-75
2023/07/25 10:37:11;;;;;;;;;;;;;;;;;;6243744;28;19904;-74
2023/07/25 10:40:12;;;;;;;;;;;;;;;;;;6238347;28;19908;-75
2023/07/25 10:43:12;;;;;;;;;;;;;;;;;;6236544;28;20387;-75
2023/07/25 10:46:12;;;;;;;;;;;;;;;;;;6230885;28;19936;-88
2023/07/25 10:49:12;;;;;;;;;;;;;;;;;;6251161;28;19959;-89
2023/07/25 10:52:12;;;;;;;;;;;;;;;;;;6253917;28;19967;-90
2023/07/25 10:55:12;;;;;;;;;;;;;;;;;;6251393;28;19905;-86
2023/07/25 10:58:14;;;;;;;;;;;;;;;;;;6254653;28;19971;-88
2023/07/25 11:01:14;;;;;;;;;;;;;;;;;;6253945;28;19996;-88
2023/07/25 11:04:14;;;;;;;;;;;;;;;;;;6238117;28;19927;-91
2023/07/25 11:07:15;;;;;;;;;;;;;;;;;;6247655;28;20352;-91
2023/07/25 11:10:15;;;;;;;;;;;;;;;;;;6251478;28;19951;-90
2023/07/25 11:13:15;;;;;;;;;;;;;;;;;;6248081;28;20331;-88
2023/07/25 11:16:17;;;;;;;;;;;;;;;;;;6255776;28;19928;-88
2023/07/25 11:19:18;;;;;;;;;;;;;;;;;;6257680;28;19913;-84
2023/07/25 11:22:18;;;;;;;;;;;;;;;;;;6257268;28;19963;-86
2023/07/25 11:25:18;;;;;;;;;;;;;;;;;;6258435;28;20310;-88
2023/07/25 11:28:19;;;;;;;;;;;;;;;;;;6256353;28;19927;-88
2023/07/25 11:31:21;;;;;;;;;;;;;;;;;;6254789;28;19905;-87
2023/07/25 11:34:21;;;;;;;;;;;;;;;;;;6260665;28;19935;-79
2023/07/25 11:37:21;;;;;;;;;;;;;;;;;;6256752;28;19920;-91
2023/07/25 11:40:27;;;;;;;;;;;;;;;;;;6252601;28;19937;-84
2023/07/25 11:43:27;;;;;;;;;;;;;;;;;;6243823;28;19905;-83
2023/07/25 11:46:27;;;;;;;;;;;;;;;;;;6260370;28;19927;-82
2023/07/25 11:49:28;;;;;;;;;;;;;;;;;;6265401;28;19917;-79
2023/07/25 11:52:28;;;;;;;;;;;;;;;;;;6262770;28;19909;-86
2023/07/25 11:55:28;;;;;;;;;;;;;;;;;;6241059;28;19912;-83
2023/07/25 11:58:28;;;;;;;;;;;;;;;;;;6258215;28;19913;-85
2023/07/25 12:01:29;;;;;;;;;;;;;;;;;;6258064;28;19909;-86
2023/07/25 12:04:29;;;;;;;;;;;;;;;;;;6238579;28;19909;-74
2023/07/25 12:07:29;;;;;;;;;;;;;;;;;;6240323;28;19912;-74
2023/07/25 12:10:29;;;;;;;;;;;;;;;;;;6241151;28;19920;-74
2023/07/25 12:13:29;;;;;;;;;;;;;;;;;;6243643;28;19915;-75
2023/07/25 12:16:29;;;;;;;;;;;;;;;;;;6239119;28;19924;-87
2023/07/25 12:19:29;;;;;;;;;;;;;;;;;;6261306;28;19912;-86
2023/07/25 12:22:29;;;;;;;;;;;;;;;;;;6241950;28;19919;-90
2023/07/25 12:25:29;;;;;;;;;;;;;;;;;;6260780;28;19920;-88
2023/07/25 12:28:30;;;;;;;;;;;;;;;;;;6260391;28;19931;-89
2023/07/25 12:31:30;;;;;;;;;;;;;;;;;;6256346;28;19960;-86
2023/07/25 12:34:30;;;;;;;;;;;;;;;;;;6252203;28;19908;-85
2023/07/25 12:37:30;;;;;;;;;;;;;;;;;;6236891;28;19910;-86
2023/07/25 12:40:30;;;;;;;;;;;;;;;;;;6245884;28;19905;-89
2023/07/25 12:43:30;;;;;;;;;;;;;;;;;;6239221;28;19947;-90
2023/07/25 12:46:30;;;;;;;;;;;;;;;;;;6240393;28;19939;-90
2023/07/25 12:49:32;;;;;;;;;;;;;;;;;;6244627;28;19912;-85
2023/07/25 12:52:32;;;;;;;;;;;;;;;;;;6249063;28;19917;-87
2023/07/25 12:55:32;;;;;;;;;;;;;;;;;;6254890;28;19906;-86
2023/07/25 12:58:32;;;;;;;;;;;;;;;;;;6248578;28;20019;-86
2023/07/25 13:01:32;;;;;;;;;;;;;;;;;;6228232;28;19910;-87
2023/07/25 13:04:33;;;;;;;;;;;;;;;;;;6239143;28;19909;-85
2023/07/25 13:07:34;;;;;;;;;;;;;;;;;;6234263;28;20398;-86
2023/07/25 13:10:35;;;;;;;;;;;;;;;;;;6222137;28;20004;-87
2023/07/25 13:13:35;;;;;;;;;;;;;;;;;;6224621;28;20401;-87
2023/07/25 13:16:35;;;;;;;;;;;;;;;;;;6252071;28;19924;-88
2023/07/25 13:19:35;;;;;;;;;;;;;;;;;;6250474;28;19912;-88
2023/07/25 13:22:36;;;;;;;;;;;;;;;;;;6256186;28;19940;-89
2023/07/25 13:25:36;;;;;;;;;;;;;;;;;;6241565;28;19959;-88
2023/07/25 13:28:36;;;;;;;;;;;;;;;;;;6240937;28;20347;-88
2023/07/25 13:31:36;;;;;;;;;;;;;;;;;;6235257;28;19909;-88
2023/07/25 13:34:36;;;;;;;;;;;;;;;;;;6236398;28;19913;-74
2023/07/25 13:37:36;;;;;;;;;;;;;;;;;;6227837;28;19909;-74
2023/07/25 13:40:37;;;;;;;;;;;;;;;;;;6228243;28;19948;-74
2023/07/25 13:43:37;;;;;;;;;;;;;;;;;;6235684;28;19996;-74
2023/07/25 13:46:37;;;;;;;;;;;;;;;;;;6227769;28;19909;-74
2023/07/25 13:49:37;;;;;;;;;;;;;;;;;;6224078;28;19912;-74
2023/07/25 13:52:37;;;;;;;;;;;;;;;;;;6235375;28;19909;-74
2023/07/25 13:55:37;;;;;;;;;;;;;;;;;;6236771;28;19974;-74
2023/07/25 13:58:37;;;;;;;;;;;;;;;;;;6219951;28;19912;-74
2023/07/25 14:01:37;;;;;;;;;;;;;;;;;;6239462;28;19912;-74
2023/07/25 14:04:39;;;;;;;;;;;;;;;;;;6238212;28;19906;-74
2023/07/25 14:07:39;;;;;;;;;;;;;;;;;;6239662;28;19913;-74
2023/07/25 14:10:42;;;;;;;;;;;;;;;;;;6236310;28;19916;-74
2023/07/25 14:13:42;;;;;;;;;;;;;;;;;;6236244;28;19952;-74
2023/07/25 14:16:42;;;;;;;;;;;;;;;;;;6234186;28;19917;-74
2023/07/25 14:19:43;;;;;;;;;;;;;;;;;;6242026;28;19915;-74
2023/07/25 14:22:43;;;;;;;;;;;;;;;;;;6229379;28;20012;-74
2023/07/25 14:25:43;;;;;;;;;;;;;;;;;;6239608;28;20379;-74
2023/07/25 14:28:44;;;;;;;;;;;;;;;;;;6246220;28;19952;-74
2023/07/25 14:31:44;;;;;;;;;;;;;;;;;;6227986;28;19908;-74
2023/07/25 14:34:44;;;;;;;;;;;;;;;;;;6235468;28;20329;-74
2023/07/25 14:37:44;;;;;;;;;;;;;;;;;;6227651;28;19916;-74
2023/07/25 14:40:44;;;;;;;;;;;;;;;;;;6244085;28;19909;-74
2023/07/25 14:43:44;;;;;;;;;;;;;;;;;;6245669;28;19905;-75
2023/07/25 14:46:45;;;;;;;;;;;;;;;;;;6248019;28;19987;-85
2023/07/25 14:49:45;;;;;;;;;;;;;;;;;;6252683;28;19917;-81
2023/07/25 14:52:45;;;;;;;;;;;;;;;;;;6242735;28;19916;-82
2023/07/25 14:55:45;;;;;;;;;;;;;;;;;;6251349;28;19948;-76
2023/07/25 14:58:45;;;;;;;;;;;;;;;;;;6243312;28;19916;-76
2023/07/25 15:01:45;;;;;;;;;;;;;;;;;;6248121;28;19909;-76
2023/07/25 15:04:45;;;;;;;;;;;;;;;;;;6222479;28;19959;-75
2023/07/25 15:07:46;;;;;;;;;;;;;;;;;;6244076;28;19986;-75
2023/07/25 15:10:46;;;;;;;;;;;;;;;;;;6222289;28;20411;-75
2023/07/25 15:13:46;;;;;;;;;;;;;;;;;;6244395;28;19962;-75
2023/07/25 15:16:46;;;;;;;;;;;;;;;;;;6236004;28;19913;-75
2023/07/25 15:19:46;;;;;;;;;;;;;;;;;;6226178;28;19951;-75
2023/07/25 15:22:47;;;;;;;;;;;;;;;;;;6242204;28;19909;-76
2023/07/25 15:25:47;;;;;;;;;;;;;;;;;;6234682;28;19913;-75
2023/07/25 15:28:47;;;;;;;;;;;;;;;;;;6229493;28;19960;-75
2023/07/25 15:31:48;;;;;;;;;;;;;;;;;;6237944;28;19988;-75
2023/07/25 15:34:49;;;;;;;;;;;;;;;;;;6241952;28;19937;-75
2023/07/25 15:37:49;;;;;;;;;;;;;;;;;;6238012;28;19909;-75
2023/07/25 15:40:49;;;;;;;;;;;;;;;;;;6229094;28;20004;-75
2023/07/25 15:43:49;;;;;;;;;;;;;;;;;;6241051;28;19909;-75
2023/07/25 15:46:49;;;;;;;;;;;;;;;;;;6236238;28;19913;-84
2023/07/25 15:49:49;;;;;;;;;;;;;;;;;;6243066;28;20004;-81
2023/07/25 15:52:49;;;;;;;;;;;;;;;;;;6256381;28;19916;-83
2023/07/25 15:55:49;;;;;;;;;;;;;;;;;;6253488;28;19909;-83
2023/07/25 15:58:50;;;;;;;;;;;;;;;;;;6250524;28;19909;-85
2023/07/25 16:01:51;;;;;;;;;;;;;;;;;;6239955;28;19909;-80
2023/07/25 16:04:51;;;;;;;;;;;;;;;;;;6251360;28;19964;-84
2023/07/25 16:07:51;;;;;;;;;;;;;;;;;;6263354;28;19916;-88
2023/07/25 16:10:51;;;;;;;;;;;;;;;;;;6256070;28;19916;-89
2023/07/25 16:13:53;;;;;;;;;;;;;;;;;;6239278;28;19920;-89
2023/07/25 16:16:53;;;;;;;;;;;;;;;;;;6242668;28;20026;-88
2023/07/25 16:19:53;;;;;;;;;;;;;;;;;;6241790;28;20371;-90
2023/07/25 16:22:53;;;;;;;;;;;;;;;;;;6247252;28;19905;-89
2023/07/25 16:25:54;;;;;;;;;;;;;;;;;;6238121;28;20039;-83
2023/07/25 16:28:54;;;;;;;;;;;;;;;;;;6259814;28;19913;-82
2023/07/25 16:31:54;;;;;;;;;;;;;;;;;;6245166;28;19941;-87
2023/07/25 16:34:57;;;;;;;;;;;;;;;;;;6261254;28;19947;-85
2023/07/25 16:37:57;;;;;;;;;;;;;;;;;;6261388;28;19959;-90
2023/07/25 16:40:57;;;;;;;;;;;;;;;;;;6238898;28;19909;-80
2023/07/25 16:43:57;;;;;;;;;;;;;;;;;;6256328;28;19947;-88
2023/07/25 16:46:57;;;;;;;;;;;;;;;;;;6259088;28;19916;-88
2023/07/25 16:49:58;;;;;;;;;;;;;;;;;;6236906;28;19905;-86
2023/07/25 16:52:58;;;;;;;;;;;;;;;;;;6251836;28;19906;-87
2023/07/25 16:55:58;;;;;;;;;;;;;;;;;;6247973;28;19913;-85
2023/07/25 16:58:59;;;;;;;;;;;;;;;;;;6242815;28;19951;-84
2023/07/25 17:01:59;;;;;;;;;;;;;;;;;;6248181;28;19909;-89
2023/07/25 17:05:03;;;;;;;;;;;;;;;;;;6256241;28;20387;-85
2023/07/25 17:08:03;;;;;;;;;;;;;;;;;;6243230;28;19917;-89
2023/07/25 17:11:06;;;;;;;;;;;;;;;;;;6242579;28;20497;-90
2023/07/25 17:14:06;;;;;;;;;;;;;;;;;;6236582;28;20259;-82
2023/07/25 17:17:06;;;;;;;;;;;;;;;;;;6225392;28;19952;-76
2023/07/25 17:20:06;;;;;;;;;;;;;;;;;;6217694;28;19916;-76
2023/07/25 17:23:07;;;;;;;;;;;;;;;;;;6222809;28;20557;-76
2023/07/25 17:26:07;;;;;;;;;;;;;;;;;;6233897;28;19929;-76
2023/07/25 17:29:07;;;;;;;;;;;;;;;;;;6220674;28;19916;-76
2023/07/25 17:32:07;;;;;;;;;;;;;;;;;;6237413;28;19963;-76
2023/07/25 17:35:07;;;;;;;;;;;;;;;;;;6240298;28;20267;-76
2023/07/25 17:38:08;;;;;;;;;;;;;;;;;;6218419;28;19919;-76
2023/07/25 17:41:08;;;;;;;;;;;;;;;;;;6234400;28;19916;-76
2023/07/25 17:44:08;;;;;;;;;;;;;;;;;;6224260;28;19999;-76
2023/07/25 17:47:08;;;;;;;;;;;;;;;;;;6240469;28;19924;-76
2023/07/25 17:50:09;;;;;;;;;;;;;;;;;;6241836;28;20331;-77
2023/07/25 17:53:09;;;;;;;;;;;;;;;;;;6234361;28;20581;-77
2023/07/25 17:56:09;;;;;;;;;;;;;;;;;;6243688;28;19909;-77
2023/07/25 17:59:09;;;;;;;;;;;;;;;;;;6243960;28;19913;-77
2023/07/25 18:02:09;;;;;;;;;;;;;;;;;;6234171;28;19955;-77
2023/07/25 18:05:09;;;;;;;;;;;;;;;;;;6225228;28;19959;-78
2023/07/25 18:08:09;;;;;;;;;;;;;;;;;;6237798;28;19956;-77
2023/07/25 18:11:09;;;;;;;;;;;;;;;;;;6245860;28;19905;-77
2023/07/25 18:14:10;;;;;;;;;;;;;;;;;;6227022;28;20493;-75
2023/07/25 18:17:10;;;;;;;;;;;;;;;;;;6223540;28;19923;-75
2023/07/25 18:20:10;;;;;;;;;;;;;;;;;;6238675;28;19955;-75
2023/07/25 18:23:10;;;;;;;;;;;;;;;;;;6243369;28;20403;-75
2023/07/25 18:26:10;;;;;;;;;;;;;;;;;;6246288;28;19924;-83
2023/07/25 18:29:10;;;;;;;;;;;;;;;;;;6227589;28;19977;-87
2023/07/25 18:32:10;;;;;;;;;;;;;;;;;;6253122;28;19932;-82
2023/07/25 18:35:10;;;;;;;;;;;;;;;;;;6242851;28;19924;-83
2023/07/25 18:38:11;;;;;;;;;;;;;;;;;;6242001;28;19936;-84
2023/07/25 18:41:11;;;;;;;;;;;;;;;;;;6223110;28;19960;-87
2023/07/25 18:44:11;;;;;;;;;;;;;;;;;;6248468;28;19909;-87
2023/07/25 18:47:11;;;;;;;;;;;;;;;;;;6244908;28;19913;-87
2023/07/25 18:50:11;;;;;;;;;;;;;;;;;;6245291;28;19963;-87
2023/07/25 18:53:11;;;;;;;;;;;;;;;;;;6220853;28;20359;-87
2023/07/25 18:56:11;;;;;;;;;;;;;;;;;;6220821;28;19924;-86
2023/07/25 18:59:12;;;;;;;;;;;;;;;;;;6238479;28;19913;-88
2023/07/25 19:02:12;;;;;;;;;;;;;;;;;;6245605;28;19951;-87
2023/07/25 19:05:12;;;;;;;;;;;;;;;;;;6235794;28;19955;-88
2023/07/25 19:08:12;;;;;;;;;;;;;;;;;;6246423;28;20326;-88
2023/07/25 19:11:12;;;;;;;;;;;;;;;;;;6239394;28;19935;-87
2023/07/25 19:14:13;;;;;;;;;;;;;;;;;;6246085;28;20012;-82
2023/07/25 19:17:13;;;;;;;;;;;;;;;;;;6221654;28;19917;-84
2023/07/25 19:20:13;;;;;;;;;;;;;;;;;;6225513;28;20299;-82
2023/07/25 19:23:13;;;;;;;;;;;;;;;;;;6214621;28;19914;-86
2023/07/25 19:26:13;;;;;;;;;;;;;;;;;;6217438;28;20012;-85
2023/07/25 19:29:13;;;;;;;;;;;;;;;;;;6214968;28;19910;-86
2023/07/25 19:32:13;;;;;;;;;;;;;;;;;;6222358;28;19910;-83
2023/07/25 19:35:13;;;;;;;;;;;;;;;;;;6225423;28;20398;-86
2023/07/25 19:38:13;;;;;;;;;;;;;;;;;;6226268;28;19917;-87
2023/07/25 19:41:14;;;;;;;;;;;;;;;;;;6219290;28;19913;-87
2023/07/25 19:44:15;;;;;;;;;;;;;;;;;;6221242;28;19911;-87
2023/07/25 19:47:16;;;;;;;;;;;;;;;;;;6221241;28;19919;-86
2023/07/25 19:50:16;;;;;;;;;;;;;;;;;;6222160;28;19913;-86
2023/07/25 19:53:16;;;;;;;;;;;;;;;;;;6212097;28;20300;-85
2023/07/25 19:56:16;;;;;;;;;;;;;;;;;;6215312;28;19959;-87
2023/07/25 19:59:16;;;;;;;;;;;;;;;;;;6220128;28;20351;-85
2023/07/25 20:02:16;;;;;;;;;;;;;;;;;;6205988;28;20013;-84
2023/07/25 20:05:16;;;;;;;;;;;;;;;;;;6218162;28;19931;-86
2023/07/25 20:08:16;;;;;;;;;;;;;;;;;;6211870;28;19921;-86
2023/07/25 20:11:16;;;;;;;;;;;;;;;;;;6222386;28;20322;-86
2023/07/25 20:14:17;;;;;;;;;;;;;;;;;;6220580;28;20004;-87
2023/07/25 20:17:17;;;;;;;;;;;;;;;;;;6222124;28;19924;-86
2023/07/25 20:20:17;;;;;;;;;;;;;;;;;;6206329;28;20098;-87
2023/07/25 20:23:17;;;;;;;;;;;;;;;;;;6223096;28;20352;-87
2023/07/25 20:26:18;;;;;;;;;;;;;;;;;;6224168;28;19921;-88
2023/07/25 20:29:18;;;;;;;;;;;;;;;;;;6225009;28;19910;-88